Time;durP1;ratioP1;P1;durP2;ratioP2;P2;SDS_P1;SDS_P2;PMS_P1;PMS_P2;Temp;Humidity;BMP_temperature;BMP_pressure;BME280_temperature;BME280_humidity;BME280_pressure;Samples;Min_cycle;Max_cycle;Signal;HPM_P1;HPM_P2
2023/09/13 00:01:45;;;;;;;17.77;10.68;;;22.10;97.20;;;;;;7395159;19;20019;-80
2023/09/13 00:04:14;;;;;;;20.00;10.68;;;22.10;97.30;;;;;;7394879;19;19999;-79
2023/09/13 00:06:43;;;;;;;18.33;11.13;;;22.20;97.00;;;;;;7396571;19;20003;-80
2023/09/13 00:09:16;;;;;;;29.88;11.77;;;22.10;96.80;;;;;;7398582;19;20081;-80
2023/09/13 00:11:44;;;;;;;26.30;12.85;;;22.10;96.60;;;;;;7395545;19;20381;-80
2023/09/13 00:14:13;;;;;;;21.65;11.35;;;22.00;96.50;;;;;;7418226;19;20017;-80
2023/09/13 00:16:42;;;;;;;21.73;12.88;;;22.00;96.60;;;;;;7398015;19;19998;-80
2023/09/13 00:19:14;;;;;;;25.63;13.40;;;22.00;96.80;;;;;;7397516;19;20003;-79
2023/09/13 00:21:44;;;;;;;28.08;14.13;;;21.90;96.70;;;;;;7398503;19;20013;-79
2023/09/13 00:24:15;;;;;;;23.65;12.55;;;21.90;96.80;;;;;;7394644;19;20410;-79
2023/09/13 00:26:44;;;;;;;23.77;14.00;;;21.90;96.80;;;;;;7397278;19;20010;-80
2023/09/13 00:29:13;;;;;;;22.85;14.23;;;21.90;96.80;;;;;;7415851;19;20014;-80
2023/09/13 00:31:42;;;;;;;22.23;12.15;;;21.80;96.80;;;;;;7395902;19;20006;-80
2023/09/13 00:34:10;;;;;;;21.92;12.43;;;21.80;97.30;;;;;;7395311;19;20006;-80
2023/09/13 00:36:40;;;;;;;23.02;12.77;;;21.90;97.10;;;;;;7393211;19;20006;-78
2023/09/13 00:39:08;;;;;;;23.02;12.73;;;21.90;97.20;;;;;;7393233;19;20084;-79
2023/09/13 00:41:40;;;;;;;23.15;12.10;;;21.90;97.20;;;;;;7402295;19;20003;-79
2023/09/13 00:44:08;;;;;;;;;;;22.00;97.10;;;;;;7415868;19;20011;-79
2023/09/13 00:46:38;;;;;;;17.70;12.18;;;22.00;97.10;;;;;;7393931;19;19927;-79
2023/09/13 00:49:07;;;;;;;23.70;12.25;;;22.00;97.00;;;;;;7395197;19;20007;-79
2023/09/13 00:51:36;;;;;;;20.92;11.93;;;22.00;97.00;;;;;;7393250;19;20013;-79
2023/09/13 00:54:06;;;;;;;20.50;11.38;;;22.00;97.00;;;;;;7393425;19;20007;-79
2023/09/13 00:56:36;;;;;;;22.15;12.18;;;22.00;96.90;;;;;;7414594;19;20014;-78
2023/09/13 00:59:10;;;;;;;17.53;11.93;;;22.00;96.90;;;;;;7394700;19;20010;-79
2023/09/13 01:01:39;;;;;;;25.40;13.18;;;22.00;96.80;;;;;;7394373;19;20026;-78
2023/09/13 01:04:08;;;;;;;21.17;11.98;;;22.10;96.50;;;;;;7392991;19;20015;-79
2023/09/13 01:06:41;;;;;;;27.55;12.88;;;22.10;96.50;;;;;;7394708;19;20002;-79
2023/09/13 01:09:10;;;;;;;23.00;12.75;;;22.00;96.40;;;;;;7395362;19;20088;-79
2023/09/13 01:11:39;;;;;;;23.83;11.63;;;22.00;96.50;;;;;;7393557;19;20010;-80
2023/09/13 01:14:10;;;;;;;24.02;12.55;;;22.00;96.40;;;;;;7417365;19;20006;-79
2023/09/13 01:16:42;;;;;;;;;;;22.00;96.40;;;;;;7394470;19;20011;-79
2023/09/13 01:19:34;;;;;;;22.27;11.27;;;22.00;96.50;;;;;;7395188;19;19935;-78
2023/09/13 01:22:21;;;;;;;20.48;11.43;;;22.00;96.60;;;;;;7395260;19;20322;-78
2023/09/13 01:25:08;;;;;;;21.35;11.95;;;22.00;96.80;;;;;;7394835;19;20247;-78
2023/09/13 01:27:46;;;;;;;15.77;11.15;;;22.00;96.70;;;;;;7394216;19;20055;-78
2023/09/13 01:30:19;;;;;;;21.10;13.55;;;22.10;96.70;;;;;;7393139;19;20010;-79
2023/09/13 01:32:49;;;;;;;25.27;11.95;;;22.00;96.70;;;;;;7393365;19;20003;-79
2023/09/13 01:35:17;;;;;;;17.08;12.77;;;22.00;96.90;;;;;;7413717;19;20085;-79
2023/09/13 01:37:47;;;;;;;20.73;12.40;;;22.00;96.80;;;;;;7393594;19;20382;-79
2023/09/13 01:40:15;;;;;;;22.70;13.68;;;22.10;96.90;;;;;;7394870;19;20031;-79
2023/09/13 01:42:48;;;;;;;20.75;12.40;;;22.10;96.80;;;;;;7394344;19;20003;-78
2023/09/13 01:45:20;;;;;;;28.98;12.60;;;22.10;96.90;;;;;;7393581;19;20006;-79
2023/09/13 01:47:50;;;;;;;23.25;14.13;;;22.10;96.90;;;;;;7392818;19;20003;-79
2023/09/13 01:50:19;;;;;;;20.05;13.48;;;22.20;96.90;;;;;;7413125;19;20007;-78
2023/09/13 01:52:48;;;;;;;26.15;14.75;;;22.20;96.80;;;;;;7390590;19;20011;-79
2023/09/13 01:55:17;;;;;;;26.33;13.73;;;22.20;96.80;;;;;;7391318;19;20006;-78
2023/09/13 01:57:45;;;;;;;24.77;14.50;;;22.20;96.90;;;;;;7392317;19;20002;-78
2023/09/13 02:00:16;;;;;;;24.13;13.57;;;22.30;96.90;;;;;;7392988;19;20043;-78
2023/09/13 02:02:47;;;;;;;33.00;16.63;;;22.30;96.90;;;;;;7389581;19;20014;-80
2023/09/13 02:05:16;;;;;;;;;;;22.30;97.00;;;;;;7414724;19;20497;-79
2023/09/13 02:07:44;;;;;;;35.17;16.63;;;22.30;96.80;;;;;;7396577;19;19911;-79
2023/09/13 02:10:13;;;;;;;28.38;16.63;;;22.30;96.60;;;;;;7405038;19;19999;-79
2023/09/13 02:12:42;;;;;;;31.33;15.70;;;22.20;96.70;;;;;;7405099;19;20010;-79
2023/09/13 02:15:12;;;;;;;32.35;15.10;;;22.20;96.60;;;;;;7404789;19;20003;-79
2023/09/13 02:17:41;;;;;;;28.42;15.02;;;22.20;96.70;;;;;;7405424;19;20243;-79
2023/09/13 02:20:13;;;;;;;26.83;14.32;;;22.20;96.70;;;;;;7408240;19;20010;-79
2023/09/13 02:22:45;;;;;;;28.20;17.52;;;22.20;96.80;;;;;;7384097;19;20031;-78
2023/09/13 02:25:16;;;;;;;29.80;17.17;;;22.10;96.80;;;;;;7386973;19;20007;-79
2023/09/13 02:27:45;;;;;;;40.85;19.77;;;22.10;96.90;;;;;;7391252;19;20067;-79
2023/09/13 02:30:13;;;;;;;29.85;15.73;;;22.20;97.00;;;;;;7388975;19;20014;-78
2023/09/13 02:32:43;;;;;;;24.25;14.50;;;22.20;97.00;;;;;;7387233;19;20006;-79
2023/09/13 02:35:14;;;;;;;28.92;15.82;;;22.20;96.90;;;;;;7411764;19;20018;-79
2023/09/13 02:37:43;;;;;;;27.70;17.45;;;22.20;96.90;;;;;;7389994;19;20003;-79
2023/09/13 02:40:13;;;;;;;37.22;21.80;;;22.20;96.80;;;;;;7390041;19;20014;-79
2023/09/13 02:42:42;;;;;;;47.58;23.50;;;22.20;96.70;;;;;;7389168;19;20003;-79
2023/09/13 02:45:12;;;;;;;40.53;22.77;;;22.20;96.60;;;;;;7388937;19;20251;-79
2023/09/13 02:47:41;;;;;;;45.53;22.52;;;22.10;96.70;;;;;;7388189;19;20003;-79
2023/09/13 02:50:11;;;;;;;44.42;23.92;;;22.10;96.70;;;;;;7410142;19;20035;-80
2023/09/13 02:52:43;;;;;;;42.42;22.50;;;22.10;96.80;;;;;;7388955;19;20007;-79
2023/09/13 02:55:12;;;;;;;45.67;22.73;;;22.10;96.80;;;;;;7390481;19;20006;-79
2023/09/13 02:57:41;;;;;;;45.20;24.02;;;22.10;96.90;;;;;;7389449;19;20003;-78
2023/09/13 03:00:11;;;;;;;40.67;22.10;;;22.10;96.90;;;;;;7388306;19;20105;-79
2023/09/13 03:02:40;;;;;;;38.92;21.95;;;22.10;96.90;;;;;;7387832;19;20006;-79
2023/09/13 03:05:09;;;;;;;43.78;23.63;;;22.10;96.90;;;;;;7409588;19;20003;-79
2023/09/13 03:07:38;;;;;;;57.25;25.90;;;22.10;97.00;;;;;;7387282;19;20027;-79
2023/09/13 03:10:11;;;;;;;55.05;27.05;;;22.10;97.00;;;;;;7387136;19;20006;-79
2023/09/13 03:12:39;;;;;;;58.22;25.92;;;22.00;97.00;;;;;;7386122;19;20013;-79
2023/09/13 03:15:09;;;;;;;63.50;28.63;;;22.00;97.00;;;;;;7392185;19;20031;-79
2023/09/13 03:17:38;;;;;;;61.92;28.35;;;22.00;97.10;;;;;;7394339;19;20031;-80
2023/09/13 03:20:09;;;;;;;52.45;28.48;;;22.00;97.10;;;;;;7416380;19;20002;-79
2023/09/13 03:22:37;;;;;;;45.03;27.42;;;21.90;97.30;;;;;;7397072;19;20003;-79
2023/09/13 03:25:09;;;;;;;54.33;28.65;;;21.90;97.30;;;;;;7395857;19;20017;-79
2023/09/13 03:27:38;;;;;;;54.33;28.75;;;21.90;97.30;;;;;;7397084;19;20010;-79
2023/09/13 03:30:09;;;;;;;58.88;27.88;;;21.90;97.30;;;;;;7394437;19;20035;-79
2023/09/13 03:32:37;;;;;;;51.92;27.58;;;21.80;97.30;;;;;;7400182;19;20018;-79
2023/09/13 03:35:07;;;;;;;60.03;28.80;;;21.80;97.20;;;;;;7415904;19;20010;-79
2023/09/13 03:37:36;;;;;;;54.13;27.27;;;21.80;97.30;;;;;;7396195;19;20007;-79
2023/09/13 03:40:05;;;;;;;47.72;26.38;;;21.80;97.20;;;;;;7397182;19;20011;-79
2023/09/13 03:42:36;;;;;;;44.55;25.27;;;21.70;97.20;;;;;;7395050;19;20342;-79
2023/09/13 03:45:05;;;;;;;;;;;21.70;97.30;;;;;;7394623;19;20031;-79
2023/09/13 03:47:34;;;;;;;44.15;25.30;;;21.70;97.30;;;;;;7417136;19;20107;-79
2023/09/13 03:50:03;;;;;;;51.72;23.17;;;21.70;97.30;;;;;;7398646;19;20006;-79
2023/09/13 03:52:31;;;;;;;45.95;23.88;;;21.70;97.30;;;;;;7396300;19;20357;-79
2023/09/13 03:55:00;;;;;;;43.50;24.45;;;21.70;97.30;;;;;;7397999;19;20007;-80
2023/09/13 03:57:29;;;;;;;44.60;24.33;;;21.70;97.30;;;;;;7395331;19;20010;-79
2023/09/13 04:00:00;;;;;;;46.95;24.10;;;21.80;97.30;;;;;;7396209;19;19996;-79
2023/09/13 04:02:29;;;;;;;;;;;21.70;97.10;;;;;;7415651;19;20006;-79
2023/09/13 04:04:57;;;;;;;44.72;22.80;;;21.80;97.00;;;;;;7398623;19;19936;-80
2023/09/13 04:07:26;;;;;;;45.38;22.95;;;21.70;96.60;;;;;;7402268;19;20018;-80
2023/09/13 04:09:55;;;;;;;49.05;22.95;;;21.60;96.70;;;;;;7399445;19;20369;-80
2023/09/13 04:12:24;;;;;;;50.17;23.42;;;21.60;96.80;;;;;;7400075;19;20003;-79
2023/09/13 04:14:52;;;;;;;45.75;23.63;;;21.50;96.90;;;;;;7394092;19;20031;-79
2023/09/13 04:17:24;;;;;;;45.28;21.10;;;21.60;97.00;;;;;;7414703;19;20007;-79
2023/09/13 04:19:52;;;;;;;43.47;23.15;;;21.60;97.10;;;;;;7395315;19;20031;-80
2023/09/13 04:22:21;;;;;;;71.72;23.90;;;21.70;97.10;;;;;;7393996;19;20006;-79
2023/09/13 04:24:50;;;;;;;162.50;26.80;;;21.70;97.10;;;;;;7389984;19;20007;-80
2023/09/13 04:27:24;;;;;;;96.80;24.27;;;21.70;96.80;;;;;;7395336;19;20003;-79
2023/09/13 04:29:54;;;;;;;142.02;26.63;;;21.60;96.70;;;;;;7393424;19;20024;-80
2023/09/13 04:32:26;;;;;;;45.92;23.55;;;21.60;96.80;;;;;;7416621;19;20010;-79
2023/09/13 04:34:55;;;;;;;41.28;22.85;;;21.40;97.00;;;;;;7394135;19;20006;-80
2023/09/13 04:37:25;;;;;;;37.72;22.52;;;21.40;97.10;;;;;;7394469;19;20006;-80
2023/09/13 04:39:54;;;;;;;48.97;24.02;;;21.40;97.10;;;;;;7393129;19;20015;-80
2023/09/13 04:42:23;;;;;;;44.80;23.83;;;21.40;97.20;;;;;;7392866;19;20010;-79
2023/09/13 04:44:52;;;;;;;40.85;22.15;;;21.40;97.10;;;;;;7390771;19;20007;-79
2023/09/13 04:47:20;;;;;;;33.85;20.55;;;21.40;97.20;;;;;;7411830;19;20006;-78
2023/09/13 04:49:52;;;;;;;36.00;20.05;;;21.40;97.30;;;;;;7392808;19;20006;-78
2023/09/13 04:52:20;;;;;;;;;;;21.50;97.30;;;;;;7393370;19;20007;-78
2023/09/13 04:54:49;;;;;;;36.38;20.52;;;21.50;97.10;;;;;;7393192;19;19919;-79
2023/09/13 04:57:18;;;;;;;41.88;21.15;;;21.50;96.90;;;;;;7392870;19;19999;-79
2023/09/13 04:59:48;;;;;;;41.53;20.85;;;21.50;97.00;;;;;;7391258;19;20240;-79
2023/09/13 05:02:17;;;;;;;35.60;20.65;;;21.50;97.10;;;;;;7414715;19;20101;-79
2023/09/13 05:04:46;;;;;;;40.83;21.50;;;21.50;97.10;;;;;;7391284;19;20006;-78
2023/09/13 05:07:17;;;;;;;40.30;22.77;;;21.50;97.10;;;;;;7392856;19;20035;-78
2023/09/13 05:09:46;;;;;;;;;;;21.50;97.10;;;;;;7392560;19;20031;-79
2023/09/13 05:12:14;;;;;;;32.90;19.70;;;21.50;97.20;;;;;;7390596;19;19922;-78
2023/09/13 05:14:45;;;;;;;36.25;20.42;;;21.50;97.20;;;;;;7390995;19;20003;-79
2023/09/13 05:17:14;;;;;;;39.13;19.92;;;21.60;97.30;;;;;;7415070;19;20011;-80
2023/09/13 05:19:43;;;;;;;36.03;19.25;;;21.60;97.30;;;;;;7392509;19;20408;-79
2023/09/13 05:22:12;;;;;;;33.13;19.55;;;21.60;97.30;;;;;;7393574;19;20007;-80
2023/09/13 05:24:43;;;;;;;41.60;20.70;;;21.70;97.30;;;;;;7391652;19;20010;-79
2023/09/13 05:27:12;;;;;;;36.72;20.80;;;21.70;97.30;;;;;;7393559;19;20025;-79
2023/09/13 05:29:41;;;;;;;45.58;26.75;;;21.80;97.30;;;;;;7390060;19;20021;-79
2023/09/13 05:32:10;;;;;;;37.08;21.83;;;21.80;97.20;;;;;;7414332;19;20031;-79
2023/09/13 05:34:38;;;;;;;34.50;19.50;;;21.80;97.10;;;;;;7391505;19;20009;-79
2023/09/13 05:37:07;;;;;;;32.95;19.17;;;21.80;97.10;;;;;;7389223;19;20034;-79
2023/09/13 05:39:36;;;;;;;33.50;18.40;;;21.80;97.00;;;;;;7392483;19;20042;-80
2023/09/13 05:42:07;;;;;;;37.13;19.92;;;21.80;97.00;;;;;;7390593;19;20006;-79
2023/09/13 05:44:36;;;;;;;31.55;18.88;;;21.80;96.80;;;;;;7410999;19;20002;-79
2023/09/13 05:47:05;;;;;;;34.72;19.33;;;21.80;96.70;;;;;;7411325;19;20014;-79
2023/09/13 05:49:34;;;;;;;33.47;20.00;;;21.70;96.70;;;;;;7392325;19;20003;-79
2023/09/13 05:52:02;;;;;;;40.28;20.60;;;21.50;96.80;;;;;;7392044;19;20007;-79
2023/09/13 05:54:31;;;;;;;36.58;20.45;;;21.60;97.30;;;;;;7393160;19;20007;-78
2023/09/13 05:57:00;;;;;;;37.78;20.17;;;21.60;97.00;;;;;;7394176;19;20007;-80
2023/09/13 05:59:35;;;;;;;35.08;20.38;;;21.60;97.10;;;;;;7423609;19;20006;-79
2023/09/13 06:02:04;;;;;;;34.10;21.48;;;21.60;97.20;;;;;;7404015;19;20003;-79
2023/09/13 06:04:32;;;;;;;33.35;20.80;;;21.60;97.10;;;;;;7403263;19;20006;-79
2023/09/13 06:07:01;;;;;;;36.30;21.00;;;21.70;97.10;;;;;;7402868;19;20006;-79
2023/09/13 06:09:30;;;;;;;33.10;20.60;;;21.70;97.10;;;;;;7389540;19;20006;-79
2023/09/13 06:12:01;;;;;;;38.22;19.83;;;21.70;97.10;;;;;;7385810;19;20043;-79
2023/09/13 06:14:32;;;;;;;;;;;21.80;97.40;;;;;;7414961;19;20007;-80
2023/09/13 06:17:02;;;;;;;36.03;18.50;;;21.90;97.00;;;;;;7390587;19;19915;-79
2023/09/13 06:19:30;;;;;;;38.17;21.17;;;21.90;96.90;;;;;;7391272;19;20054;-79
2023/09/13 06:21:59;;;;;;;30.98;19.33;;;21.90;96.90;;;;;;7390077;19;20003;-79
2023/09/13 06:24:28;;;;;;;43.25;20.80;;;22.00;96.90;;;;;;7389553;19;20006;-79
2023/09/13 06:26:57;;;;;;;36.00;21.25;;;22.00;96.80;;;;;;7389080;19;20026;-79
2023/09/13 06:29:26;;;;;;;39.05;22.13;;;22.00;96.60;;;;;;7409623;19;20006;-79
2023/09/13 06:31:58;;;;;;;42.17;23.48;;;22.00;96.60;;;;;;7389681;19;20003;-79
2023/09/13 06:34:27;;;;;;;38.92;22.27;;;21.90;96.50;;;;;;7388387;19;20002;-79
2023/09/13 06:36:56;;;;;;;38.40;22.38;;;22.00;96.60;;;;;;7389618;19;20038;-79
2023/09/13 06:39:25;;;;;;;35.40;21.58;;;22.00;96.60;;;;;;7387422;19;20020;-80
2023/09/13 06:41:54;;;;;;;40.95;22.77;;;22.00;96.80;;;;;;7389614;19;20014;-79
2023/09/13 06:44:23;;;;;;;37.63;21.17;;;22.00;96.70;;;;;;7409665;19;20006;-79
2023/09/13 06:46:51;;;;;;;40.22;22.30;;;22.00;96.80;;;;;;7386556;19;20019;-79
2023/09/13 06:49:23;;;;;;;36.17;21.20;;;22.00;96.80;;;;;;7393050;19;20006;-79
2023/09/13 06:51:51;;;;;;;37.22;22.85;;;22.00;96.70;;;;;;7395586;19;20227;-78
2023/09/13 06:54:21;;;;;;;45.00;22.40;;;22.00;96.70;;;;;;7398486;19;20031;-79
2023/09/13 06:56:49;;;;;;;35.38;20.23;;;21.90;96.70;;;;;;7393703;19;20013;-79
2023/09/13 06:59:19;;;;;;;38.17;23.13;;;21.80;96.60;;;;;;7418033;19;20027;-79
2023/09/13 07:01:48;;;;;;;40.63;21.58;;;21.80;96.80;;;;;;7394551;19;20011;-79
2023/09/13 07:04:17;;;;;;;37.40;21.27;;;21.80;96.80;;;;;;7395089;19;20007;-79
2023/09/13 07:06:48;;;;;;;45.22;22.30;;;21.90;96.90;;;;;;7393497;19;20006;-79
2023/09/13 07:09:17;;;;;;;42.25;23.27;;;21.90;96.90;;;;;;7393740;19;20002;-79
2023/09/13 07:11:46;;;;;;;40.03;21.80;;;21.90;96.70;;;;;;7395058;19;20013;-79
2023/09/13 07:14:15;;;;;;;38.80;20.08;;;22.00;96.80;;;;;;7414208;19;20034;-79
2023/09/13 07:16:43;;;;;;;32.60;19.45;;;22.00;96.60;;;;;;7394247;19;20022;-79
2023/09/13 07:19:12;;;;;;;35.72;19.40;;;22.00;96.50;;;;;;7394888;19;20294;-79
2023/09/13 07:21:41;;;;;;;40.42;20.67;;;22.00;96.40;;;;;;7392823;19;20022;-79
2023/09/13 07:24:12;;;;;;;37.03;18.75;;;22.10;96.50;;;;;;7392298;19;20030;-78
2023/09/13 07:26:41;;;;;;;28.85;18.63;;;22.00;96.40;;;;;;7390262;19;19998;-79
2023/09/13 07:29:10;;;;;;;29.60;18.65;;;22.10;96.30;;;;;;7413998;19;20039;-78
2023/09/13 07:31:39;;;;;;;34.13;19.45;;;22.10;96.40;;;;;;7390886;19;20002;-78
2023/09/13 07:34:08;;;;;;;33.20;19.13;;;22.10;96.50;;;;;;7391463;19;20010;-78
2023/09/13 07:36:37;;;;;;;32.95;19.40;;;22.10;96.40;;;;;;7390949;19;20330;-79
2023/09/13 07:39:08;;;;;;;34.38;18.80;;;22.10;96.40;;;;;;7392875;19;20006;-78
2023/09/13 07:41:39;;;;;;;30.00;18.27;;;22.10;96.40;;;;;;7406741;19;20031;-79
2023/09/13 07:44:08;;;;;;;;;;;22.10;96.30;;;;;;7414197;19;19998;-79
2023/09/13 07:46:37;;;;;;;30.70;17.33;;;22.10;96.20;;;;;;7390584;19;19931;-79
2023/09/13 07:49:05;;;;;;;26.30;16.50;;;22.10;96.20;;;;;;7393260;19;20046;-79
2023/09/13 07:51:34;;;;;;;30.52;16.80;;;22.10;96.20;;;;;;7395035;19;20011;-79
2023/09/13 07:54:07;;;;;;;28.50;16.73;;;22.20;96.30;;;;;;7397758;19;20003;-79
2023/09/13 07:56:38;;;;;;;34.10;15.88;;;22.20;96.30;;;;;;7418598;19;20011;-79
2023/09/13 07:59:08;;;;;;;22.75;14.57;;;22.20;96.10;;;;;;7399290;19;20013;-77
2023/09/13 08:01:37;;;;;;;28.52;15.35;;;22.20;96.10;;;;;;7399107;19;20074;-79
2023/09/13 08:04:06;;;;;;;33.17;15.02;;;22.20;96.20;;;;;;7392569;19;20003;-81
2023/09/13 08:06:35;;;;;;;23.70;14.70;;;22.30;95.90;;;;;;7392505;19;20010;-79
2023/09/13 08:09:04;;;;;;;29.00;15.80;;;22.20;96.00;;;;;;7391439;19;20006;-79
2023/09/13 08:11:32;;;;;;;23.95;15.27;;;22.20;96.00;;;;;;7413646;19;20007;-79
2023/09/13 08:14:04;;;;;;;20.73;14.48;;;22.00;96.10;;;;;;7393077;19;20038;-79
2023/09/13 08:16:33;;;;;;;23.88;12.93;;;22.10;96.20;;;;;;7393613;19;20015;-78
2023/09/13 08:19:02;;;;;;;24.58;12.77;;;22.00;96.00;;;;;;7393952;19;20002;-79
2023/09/13 08:21:30;;;;;;;28.20;13.00;;;22.00;96.00;;;;;;7393130;19;20006;-79
2023/09/13 08:23:59;;;;;;;22.52;13.52;;;22.00;96.00;;;;;;7391202;19;20390;-77
2023/09/13 08:26:30;;;;;;;19.33;12.70;;;22.00;96.10;;;;;;7413604;19;20007;-79
2023/09/13 08:28:58;;;;;;;22.00;12.50;;;22.10;96.20;;;;;;7394554;19;20035;-79
2023/09/13 08:31:30;;;;;;;21.85;11.32;;;22.10;96.20;;;;;;7393918;19;20408;-78
2023/09/13 08:33:58;;;;;;;24.13;10.98;;;22.00;95.90;;;;;;7392606;19;20015;-78
2023/09/13 08:36:27;;;;;;;19.98;10.27;;;22.10;95.80;;;;;;7391752;19;20010;-78
2023/09/13 08:38:56;;;;;;;16.63;10.13;;;22.20;95.80;;;;;;7390784;19;20357;-79
2023/09/13 08:41:27;;;;;;;13.82;10.32;;;22.20;95.70;;;;;;7412509;19;20011;-79
2023/09/13 08:43:59;;;;;;;18.83;10.15;;;22.40;95.40;;;;;;7390705;19;20010;-80
2023/09/13 08:46:31;;;;;;;21.15;10.25;;;22.30;95.40;;;;;;7390260;19;20390;-80
2023/09/13 08:49:02;;;;;;;18.95;10.05;;;22.40;95.60;;;;;;7389498;19;20031;-80
2023/09/13 08:51:32;;;;;;;17.20;10.18;;;22.50;95.20;;;;;;7391261;19;20002;-79
2023/09/13 08:54:01;;;;;;;17.13;9.95;;;22.60;95.10;;;;;;7391573;19;20272;-78
2023/09/13 08:56:34;;;;;;;15.35;9.35;;;22.60;94.90;;;;;;7413041;19;20007;-80
2023/09/13 08:59:03;;;;;;;22.48;10.55;;;22.50;94.90;;;;;;7391887;19;20011;-78
2023/09/13 09:01:35;;;;;;;24.08;10.60;;;22.50;94.90;;;;;;7390845;19;20026;-79
2023/09/13 09:04:04;;;;;;;15.95;10.15;;;22.50;94.80;;;;;;7393686;19;20019;-79
2023/09/13 09:06:34;;;;;;;15.00;9.45;;;22.60;94.90;;;;;;7391072;19;20017;-78
2023/09/13 09:09:04;;;;;;;13.07;8.65;;;22.60;94.90;;;;;;7392781;19;20092;-79
2023/09/13 09:11:35;;;;;;;14.60;8.52;;;22.60;94.80;;;;;;7410342;19;20027;-79
2023/09/13 09:14:04;;;;;;;;;;;22.60;94.90;;;;;;7391629;19;20018;-78
2023/09/13 09:16:38;;;;;;;15.40;9.02;;;22.70;94.90;;;;;;7391499;19;19910;-80
2023/09/13 09:19:07;;;;;;;14.48;7.63;;;22.70;94.70;;;;;;7391659;19;20016;-79
2023/09/13 09:21:37;;;;;;;14.13;8.35;;;22.70;94.50;;;;;;7392527;19;20014;-79
2023/09/13 09:24:06;;;;;;;11.23;8.10;;;22.70;94.50;;;;;;7389316;19;20363;-79
2023/09/13 09:26:35;;;;;;;14.43;8.45;;;22.80;94.40;;;;;;7410486;19;20017;-79
2023/09/13 09:29:22;;;;;;;12.75;8.02;;;22.70;94.30;;;;;;7393121;19;20006;-79
2023/09/13 09:31:56;;;;;;;15.65;8.15;;;22.70;94.30;;;;;;7391205;19;20003;-78
2023/09/13 09:34:32;;;;;;;13.23;7.53;;;22.60;94.00;;;;;;7391072;19;20007;-78
2023/09/13 09:37:07;;;;;;;20.75;7.20;;;22.60;94.60;;;;;;7390951;19;20050;-78
2023/09/13 09:39:39;;;;;;;11.45;6.72;;;22.60;94.50;;;;;;7392276;19;20046;-78
2023/09/13 09:42:08;;;;;;;15.43;7.35;;;22.60;94.10;;;;;;7390409;19;19999;-79
2023/09/13 09:44:37;;;;;;;14.80;7.38;;;22.60;94.10;;;;;;7409047;19;20006;-79
2023/09/13 09:47:13;;;;;;;12.25;6.95;;;22.60;94.20;;;;;;7415063;19;20281;-78
2023/09/13 09:49:41;;;;;;;12.55;6.75;;;22.70;94.40;;;;;;7390204;19;20031;-78
2023/09/13 09:52:10;;;;;;;14.10;7.75;;;22.80;94.30;;;;;;7386065;19;20385;-78
2023/09/13 09:54:40;;;;;;;22.17;7.50;;;22.80;94.30;;;;;;7388583;19;20035;-80
2023/09/13 09:57:09;;;;;;;11.98;7.32;;;22.90;94.40;;;;;;7389902;19;20007;-80
2023/09/13 09:59:39;;;;;;;9.70;6.85;;;23.00;94.00;;;;;;7394635;19;20014;-80
2023/09/13 10:02:10;;;;;;;10.48;6.85;;;23.10;93.70;;;;;;7415141;19;20015;-79
2023/09/13 10:04:47;;;;;;;9.95;7.10;;;23.20;93.50;;;;;;7395049;19;20428;-79
2023/09/13 10:07:16;;;;;;;12.35;6.93;;;23.20;93.40;;;;;;7389988;19;20324;-79
2023/09/13 10:09:46;;;;;;;15.65;7.28;;;23.20;93.40;;;;;;7388792;19;20003;-78
2023/09/13 10:12:16;;;;;;;8.68;6.72;;;23.30;93.30;;;;;;7388028;19;20026;-78
2023/09/13 10:14:47;;;;;;;16.00;6.80;;;23.30;93.40;;;;;;7385722;19;20027;-78
2023/09/13 10:17:20;;;;;;;11.50;6.70;;;23.40;93.30;;;;;;7406912;19;20007;-78
2023/09/13 10:19:51;;;;;;;11.95;7.97;;;23.40;93.30;;;;;;7384976;19;20424;-79
2023/09/13 10:22:25;;;;;;;;;;;23.40;93.10;;;;;;7387061;19;20003;-80
2023/09/13 10:25:00;;;;;;;12.82;7.80;;;23.40;93.10;;;;;;7394657;19;19910;-79
2023/09/13 10:27:31;;;;;;;21.05;9.93;;;23.50;92.60;;;;;;7394808;19;20011;-79
2023/09/13 10:30:05;;;;;;;15.25;8.07;;;23.60;92.80;;;;;;7392511;19;19998;-79
2023/09/13 10:32:49;;;;;;;22.92;9.85;;;23.60;92.90;;;;;;7414822;19;20015;-80
2023/09/13 10:35:20;;;;;;;17.00;8.25;;;23.70;93.00;;;;;;7396519;19;20006;-80
2023/09/13 10:37:54;;;;;;;12.77;7.43;;;23.80;92.60;;;;;;7394876;19;20006;-80
2023/09/13 10:40:25;;;;;;;13.18;7.63;;;23.80;92.80;;;;;;7393858;19;20003;-78
2023/09/13 10:42:57;;;;;;;12.68;7.05;;;23.90;92.20;;;;;;7393901;19;20002;-79
2023/09/13 10:45:27;;;;;;;16.15;7.65;;;23.90;92.10;;;;;;7392770;19;20010;-81
2023/09/13 10:48:03;;;;;;;10.18;6.95;;;23.90;92.20;;;;;;7392946;19;20080;-79
2023/09/13 10:50:32;;;;;;;20.77;7.63;;;24.00;92.40;;;;;;7414801;19;20223;-80
2023/09/13 10:53:02;;;;;;;11.40;7.05;;;24.00;92.30;;;;;;7394352;19;20007;-80
2023/09/13 10:55:31;;;;;;;15.38;7.88;;;24.00;92.40;;;;;;7394185;19;20023;-79
2023/09/13 10:58:03;;;;;;;11.82;6.88;;;24.10;92.50;;;;;;7392698;19;20255;-79
2023/09/13 11:00:34;;;;;;;11.55;6.78;;;24.10;92.10;;;;;;7392401;19;19999;-78
2023/09/13 11:03:05;;;;;;;12.00;7.40;;;24.20;91.70;;;;;;7393312;19;20024;-79
2023/09/13 11:05:36;;;;;;;17.00;7.70;;;24.20;91.50;;;;;;7416729;19;20014;-79
2023/09/13 11:08:05;;;;;;;14.25;7.93;;;24.30;91.30;;;;;;7395202;19;20010;-79
2023/09/13 11:10:34;;;;;;;16.33;7.82;;;24.40;91.10;;;;;;7396852;19;20061;-79
2023/09/13 11:13:14;;;;;;;13.00;8.20;;;24.40;91.50;;;;;;7394802;19;20022;-78
2023/09/13 11:15:55;;;;;;;15.45;7.15;;;24.40;91.50;;;;;;7394176;19;20235;-79
2023/09/13 11:18:29;;;;;;;15.70;7.28;;;24.50;91.20;;;;;;7394910;19;20072;-78
2023/09/13 11:20:58;;;;;;;14.68;7.63;;;24.40;90.80;;;;;;7391988;19;20020;-78
2023/09/13 11:23:27;;;;;;;13.57;7.70;;;24.50;90.50;;;;;;7413861;19;20006;-79
2023/09/13 11:25:58;;;;;;;14.18;7.25;;;24.50;90.60;;;;;;7392966;19;20378;-79
2023/09/13 11:28:29;;;;;;;13.18;7.15;;;24.50;90.80;;;;;;7393866;19;20002;-80
2023/09/13 11:31:01;;;;;;;12.30;6.95;;;24.60;90.50;;;;;;7392366;19;20647;-80
2023/09/13 11:33:33;;;;;;;26.92;6.65;;;24.60;90.30;;;;;;7391828;19;20035;-79
2023/09/13 11:36:04;;;;;;;12.27;6.72;;;24.60;90.40;;;;;;7389141;19;20002;-79
2023/09/13 11:38:33;;;;;;;9.27;6.45;;;24.70;90.10;;;;;;7410325;19;20035;-80
2023/09/13 11:41:02;;;;;;;11.10;5.85;;;24.70;89.70;;;;;;7391347;19;20010;-80
2023/09/13 11:43:32;;;;;;;11.70;6.20;;;24.70;89.20;;;;;;7396364;19;20011;-79
2023/09/13 11:46:01;;;;;;;10.07;6.63;;;24.70;89.40;;;;;;7394837;19;20003;-81
2023/09/13 11:48:39;;;;;;;12.75;5.97;;;24.70;89.00;;;;;;7395038;19;20264;-80
2023/09/13 11:51:12;;;;;;;9.55;4.85;;;24.80;89.00;;;;;;7393165;19;20287;-79
2023/09/13 11:53:42;;;;;;;10.98;4.95;;;24.90;88.10;;;;;;7394128;19;20027;-80
2023/09/13 11:56:35;;;;;;;8.48;4.43;;;25.00;87.70;;;;;;7414684;19;20007;-80
2023/09/13 11:59:04;;;;;;;6.63;4.55;;;25.10;88.00;;;;;;7393335;19;20319;-78
2023/09/13 12:01:33;;;;;;;10.80;4.63;;;25.10;88.00;;;;;;7393838;19;20027;-79
2023/09/13 12:04:08;;;;;;;8.40;4.25;;;25.20;86.10;;;;;;7393858;19;20002;-79
2023/09/13 12:06:44;;;;;;;8.48;3.55;;;25.20;86.50;;;;;;7393471;19;20007;-80
2023/09/13 12:09:14;;;;;;;6.78;4.57;;;25.30;87.40;;;;;;7392202;19;20062;-79
2023/09/13 12:11:43;;;;;;;6.30;3.78;;;25.40;85.90;;;;;;7392660;19;20244;-80
2023/09/13 12:14:12;;;;;;;7.25;3.47;;;25.40;85.50;;;;;;7415589;19;20342;-78
2023/09/13 12:16:42;;;;;;;5.93;3.20;;;25.30;85.50;;;;;;7393895;19;20030;-79
2023/09/13 12:19:14;;;;;;;7.32;4.20;;;25.30;84.10;;;;;;7393976;19;20003;-79
2023/09/13 12:21:46;;;;;;;5.57;3.58;;;25.30;83.70;;;;;;7392804;19;20024;-78
2023/09/13 12:24:20;;;;;;;6.95;3.60;;;25.30;83.30;;;;;;7392190;19;20393;-79
2023/09/13 12:26:53;;;;;;;4.65;3.05;;;25.20;84.00;;;;;;7391272;19;20216;-78
2023/09/13 12:29:22;;;;;;;6.25;3.42;;;25.10;84.20;;;;;;7412715;19;20031;-79
2023/09/13 12:31:55;;;;;;;8.20;4.43;;;25.20;84.90;;;;;;7392231;19;20010;-79
2023/09/13 12:34:27;;;;;;;11.18;3.97;;;25.30;84.80;;;;;;7394253;19;20086;-79
2023/09/13 12:36:56;;;;;;;7.50;3.95;;;25.30;85.70;;;;;;7394148;19;20066;-79
2023/09/13 12:39:25;;;;;;;7.40;3.67;;;25.30;85.50;;;;;;7390900;19;20013;-79
2023/09/13 12:41:54;;;;;;;7.60;3.30;;;25.50;86.40;;;;;;7392479;19;20035;-79
2023/09/13 12:44:23;;;;;;;6.60;3.05;;;25.60;84.00;;;;;;7410483;19;20002;-79
2023/09/13 12:46:53;;;;;;;7.72;2.83;;;25.70;82.60;;;;;;7387897;19;20231;-80
2023/09/13 12:49:21;;;;;;;7.22;3.03;;;25.70;81.80;;;;;;7389710;19;20021;-80